createdAt,value
2019-04-21T00:01:54.538Z,40.61
2019-04-21T00:04:33.271Z,40.59
2019-04-21T00:07:14.445Z,40.22
2019-04-21T00:09:50.256Z,40.87
2019-04-21T00:12:15.405Z,41.04
2019-04-21T00:14:36.969Z,40.57
2019-04-21T00:17:00.552Z,40.44
2019-04-21T00:19:39.514Z,40.82
2019-04-21T00:22:19.150Z,41.20
2019-04-21T00:24:49.751Z,41.57
2019-04-21T00:27:26.612Z,41.67
2019-04-21T00:29:58.225Z,42.08
2019-04-21T00:32:21.967Z,42.62
2019-04-21T00:34:43.255Z,43.00
2019-04-21T00:37:18.895Z,42.70
2019-04-21T00:42:29.153Z,43.11
2019-04-21T00:44:59.161Z,43.30
2019-04-21T00:47:32.948Z,43.83
2019-04-21T00:50:00.275Z,44.01
2019-04-21T00:52:49.160Z,44.30
2019-04-21T00:55:18.106Z,44.07
2019-04-21T00:57:38.882Z,44.60
2019-04-21T01:00:08.911Z,44.36
2019-04-21T01:02:41.399Z,45.13
2019-04-21T01:05:15.139Z,45.37
2019-04-21T01:07:37.126Z,45.28
2019-04-21T01:09:58.959Z,45.29
2019-04-21T01:12:37.379Z,45.34
2019-04-21T01:15:11.050Z,45.63
2019-04-21T01:17:38.545Z,45.58
2019-04-21T01:20:01.220Z,45.25
2019-04-21T01:22:16.158Z,45.82
2019-04-21T01:24:48.738Z,45.58
2019-04-21T01:27:26.386Z,45.83
2019-04-21T01:30:05.680Z,46.28
2019-04-21T01:32:35.659Z,46.57
2019-04-21T01:35:02.357Z,46.41
2019-04-21T01:37:44.171Z,46.84
2019-04-21T01:40:08.480Z,46.87
2019-04-21T01:42:45.946Z,46.84
2019-04-21T01:45:09.355Z,46.89
2019-04-21T01:47:44.902Z,47.24
2019-04-21T01:50:02.581Z,47.21
2019-04-21T01:52:50.166Z,47.28
2019-04-21T01:55:26.389Z,47.21
2019-04-21T01:57:55.197Z,47.65
2019-04-21T02:00:23.438Z,47.19
2019-04-21T02:03:10.362Z,47.56
2019-04-21T02:05:37.553Z,47.71
2019-04-21T02:08:02.523Z,48.07
2019-04-21T02:10:41.558Z,48.19
2019-04-21T02:13:03.432Z,48.16
2019-04-21T02:15:36.485Z,47.99
2019-04-21T02:18:07.315Z,48.34
2019-04-21T02:20:25.927Z,48.48
2019-04-21T02:23:20.431Z,48.63
2019-04-21T02:25:41.239Z,48.72
2019-04-21T02:28:16.391Z,48.86
2019-04-21T02:30:56.899Z,48.84
2019-04-21T02:33:26.070Z,49.27
2019-04-21T02:36:18.982Z,48.88
2019-04-21T02:38:20.555Z,49.24
2019-04-21T02:43:22.917Z,49.41
2019-04-21T02:45:53.681Z,49.44
2019-04-21T02:50:47.171Z,48.96
2019-04-21T02:53:47.818Z,48.40
2019-04-21T02:55:46.483Z,48.26
2019-04-21T02:58:34.514Z,48.96
2019-04-21T03:01:03.291Z,48.87
2019-04-21T03:03:43.683Z,48.30
2019-04-21T03:06:12.130Z,48.45
2019-04-21T03:18:54.262Z,49.04
2019-04-21T03:23:46.061Z,49.54
2019-04-21T03:26:20.407Z,49.89
2019-04-21T03:28:43.473Z,49.88
2019-04-21T03:34:18.193Z,49.43
2019-04-21T03:36:41.073Z,48.84
2019-04-21T03:41:32.313Z,47.62
2019-04-21T03:43:44.206Z,47.61
2019-04-21T03:46:16.443Z,47.89
2019-04-21T03:49:02.441Z,47.93
2019-04-21T03:56:27.214Z,48.26
2019-04-21T03:58:54.172Z,48.63
2019-04-21T04:04:14.977Z,49.08
2019-04-21T04:06:56.058Z,49.67
2019-04-21T04:12:01.105Z,50.42
2019-04-21T04:14:38.834Z,50.71
2019-04-21T04:19:40.140Z,49.38
2019-04-21T04:22:24.876Z,49.30
2019-04-21T04:27:12.705Z,49.10
2019-04-21T04:34:41.214Z,49.34
2019-04-21T04:37:16.655Z,49.20
2019-04-21T04:42:37.243Z,48.76
2019-04-21T04:47:20.591Z,49.25
2019-04-21T04:49:48.135Z,49.19
2019-04-21T04:52:27.738Z,49.58
2019-04-21T04:57:19.526Z,49.04
2019-04-21T04:59:43.055Z,48.77
2019-04-21T05:02:20.061Z,49.74
2019-04-21T05:07:17.470Z,48.98
2019-04-21T05:09:47.250Z,48.70
2019-04-21T05:12:24.813Z,49.38
2019-04-21T05:17:14.162Z,48.71
2019-04-21T05:22:17.327Z,48.23
2019-04-21T05:24:30.354Z,49.23
2019-04-21T05:26:58.440Z,49.47
2019-04-21T05:29:40.267Z,49.42
2019-04-21T05:32:14.063Z,49.86
2019-04-21T05:34:53.341Z,49.47
2019-04-21T05:37:30.140Z,49.42
2019-04-21T05:39:55.837Z,50.88
2019-04-21T05:42:27.419Z,51.74
2019-04-21T05:45:12.695Z,50.83
2019-04-21T05:47:57.884Z,50.63
2019-04-21T05:50:06.532Z,48.49
2019-04-21T05:52:34.066Z,50.27
2019-04-21T05:55:09.593Z,49.98
2019-04-21T05:57:43.143Z,50.55
2019-04-21T06:00:13.624Z,51.45
2019-04-21T06:02:43.432Z,51.80
2019-04-21T06:05:20.360Z,50.30
2019-04-21T06:07:39.447Z,48.28
2019-04-21T06:10:12.402Z,50.25
2019-04-21T06:12:57.711Z,51.89
2019-04-21T06:15:13.806Z,53.67
2019-04-21T06:17:44.687Z,54.95
2019-04-21T06:20:14.084Z,55.66
2019-04-21T06:22:46.327Z,56.47
2019-04-21T06:27:45.796Z,57.17
2019-04-21T06:30:10.344Z,57.42
2019-04-21T06:35:40.206Z,57.51
2019-04-21T06:38:07.868Z,57.58
2019-04-21T06:40:35.761Z,56.76
2019-04-21T06:43:12.985Z,56.27
2019-04-21T06:45:34.817Z,55.75
2019-04-21T06:48:06.205Z,55.87
2019-04-21T06:50:40.072Z,55.17
2019-04-21T06:53:03.982Z,55.12
2019-04-21T06:55:32.044Z,54.88
2019-04-21T06:58:06.651Z,54.20
2019-04-21T07:00:33.026Z,53.65
2019-04-21T07:03:14.144Z,52.97
2019-04-21T07:05:42.646Z,52.18
2019-04-21T07:08:25.980Z,52.04
2019-04-21T07:10:41.669Z,51.31
2019-04-21T07:13:03.576Z,51.08
2019-04-21T07:15:39.119Z,50.37
2019-04-21T07:18:15.695Z,48.02
2019-04-21T07:20:36.708Z,48.70
2019-04-21T07:23:13.311Z,48.50
2019-04-21T07:25:39.106Z,47.03
2019-04-21T07:28:12.868Z,47.48
2019-04-21T07:30:43.630Z,48.13
2019-04-21T07:33:37.387Z,46.99
2019-04-21T07:35:38.039Z,47.07
2019-04-21T07:38:08.327Z,46.25
2019-04-21T07:40:33.385Z,45.28
2019-04-21T07:43:03.915Z,46.04
2019-04-21T07:45:35.117Z,46.12
2019-04-21T07:48:14.336Z,45.44
2019-04-21T07:51:07.516Z,45.70
2019-04-21T07:53:59.228Z,44.42
2019-04-21T07:56:06.542Z,43.71
2019-04-21T07:58:56.347Z,44.25
2019-04-21T08:01:24.280Z,42.37
2019-04-21T08:03:46.071Z,41.79
2019-04-21T08:06:29.582Z,44.41
2019-04-21T08:08:52.883Z,41.22
2019-04-21T08:11:19.725Z,41.97
2019-04-21T08:13:53.001Z,42.38
2019-04-21T08:16:25.422Z,41.37
2019-04-21T08:18:52.365Z,41.44
2019-04-21T08:21:20.660Z,41.44
2019-04-21T08:23:46.706Z,40.14
2019-04-21T08:26:24.278Z,41.24
2019-04-21T08:28:52.379Z,40.66
2019-04-21T08:31:32.663Z,40.70
2019-04-21T08:36:32.641Z,37.63
2019-04-21T08:38:53.530Z,37.07
2019-04-21T08:41:27.969Z,36.69
2019-04-21T08:43:51.352Z,35.59
2019-04-21T08:46:25.332Z,35.66
2019-04-21T08:48:55.494Z,35.50
2019-04-21T08:56:31.915Z,34.34
2019-04-21T08:59:18.979Z,33.55
2019-04-21T09:01:50.764Z,34.73
2019-04-21T09:04:19.919Z,33.00
2019-04-21T09:06:59.169Z,32.99
2019-04-21T09:09:24.439Z,34.08
2019-04-21T09:11:54.319Z,33.56
2019-04-21T09:14:17.859Z,33.30
2019-04-21T09:16:47.572Z,32.51
2019-04-21T09:19:35.366Z,31.27
2019-04-21T09:21:53.005Z,33.35
2019-04-21T09:24:24.617Z,30.82
2019-04-21T09:26:55.635Z,31.42
2019-04-21T09:29:10.912Z,30.02
2019-04-21T09:31:37.954Z,30.23
2019-04-21T09:34:06.509Z,30.10
2019-04-21T09:36:41.287Z,28.94
2019-04-21T09:39:12.960Z,28.63
2019-04-21T09:41:38.187Z,27.64
2019-04-21T09:44:09.933Z,28.64
2019-04-21T09:46:44.343Z,27.87
2019-04-21T09:49:12.053Z,27.76
2019-04-21T09:51:37.354Z,27.08
2019-04-21T09:54:12.065Z,27.81
2019-04-21T09:56:45.459Z,26.94
2019-04-21T09:59:14.850Z,26.54
2019-04-21T10:01:49.104Z,26.93
2019-04-21T10:04:07.668Z,26.42
2019-04-21T10:06:37.252Z,27.47
2019-04-21T10:09:10.260Z,27.95
2019-04-21T10:11:37.643Z,26.21
2019-04-21T10:14:07.448Z,26.40
2019-04-21T10:16:54.116Z,26.38
2019-04-21T10:19:31.960Z,25.31
2019-04-21T10:22:02.726Z,24.59
2019-04-21T10:24:30.839Z,24.78
2019-04-21T10:26:59.221Z,24.49
2019-04-21T10:29:30.911Z,25.37
2019-04-21T10:31:59.511Z,23.77
2019-04-21T10:34:29.299Z,24.29
2019-04-21T10:36:58.659Z,25.05
2019-04-21T10:39:27.343Z,24.20
2019-04-21T10:41:57.265Z,22.14
2019-04-21T10:44:27.229Z,23.49
2019-04-21T10:46:56.031Z,22.89
2019-04-21T10:49:24.546Z,23.22
2019-04-21T10:51:53.204Z,23.36
2019-04-21T10:54:21.903Z,23.49
2019-04-21T10:56:50.803Z,22.64
2019-04-21T10:59:20.459Z,22.80
2019-04-21T11:01:49.168Z,22.05
2019-04-21T11:04:25.330Z,22.19
2019-04-21T11:06:50.771Z,22.15
2019-04-21T11:09:20.043Z,21.31
2019-04-21T11:11:50.327Z,21.86
2019-04-21T11:14:18.694Z,21.68
2019-04-21T11:16:49.268Z,22.53
2019-04-21T11:19:19.951Z,22.40
2019-04-21T11:21:49.344Z,21.83
2019-04-21T11:24:18.147Z,21.61
2019-04-21T11:26:47.744Z,22.38
2019-04-21T11:29:17.067Z,20.32
2019-04-21T11:31:45.557Z,20.51
2019-04-21T11:34:15.483Z,22.53
2019-04-21T11:36:44.060Z,22.15
2019-04-21T11:39:24.621Z,21.04
2019-04-21T11:41:45.629Z,21.35
2019-04-21T11:44:14.155Z,20.92
2019-04-21T11:46:42.702Z,23.84
2019-04-21T11:49:12.464Z,21.34
2019-04-21T11:51:40.916Z,21.99
2019-04-21T11:54:09.331Z,22.24
2019-04-21T11:56:38.918Z,22.11
2019-04-21T11:59:08.007Z,22.00
2019-04-21T12:01:36.768Z,22.17
2019-04-21T12:04:05.844Z,23.16
2019-04-21T12:06:41.557Z,21.17
2019-04-21T12:09:08.315Z,22.41
2019-04-21T12:11:37.090Z,22.40
2019-04-21T12:14:06.188Z,21.92
2019-04-21T12:16:35.098Z,20.16
2019-04-21T12:19:05.009Z,22.14
2019-04-21T12:21:46.613Z,23.11
2019-04-21T12:24:04.022Z,21.30
2019-04-21T12:26:33.765Z,20.83
2019-04-21T12:29:03.832Z,21.34
2019-04-21T12:31:49.658Z,21.77
2019-04-21T12:34:19.473Z,21.72
2019-04-21T12:36:48.737Z,20.67
2019-04-21T12:39:18.650Z,21.00
2019-04-21T12:41:47.198Z,21.62
2019-04-21T12:44:15.923Z,21.04
2019-04-21T12:46:45.585Z,22.34
2019-04-21T12:49:14.326Z,22.68
2019-04-21T12:51:44.102Z,21.78
2019-04-21T12:54:12.846Z,21.19
2019-04-21T12:56:41.398Z,22.41
2019-04-21T12:59:10.022Z,22.31
2019-04-21T13:01:39.013Z,20.97
2019-04-21T13:04:08.169Z,21.95
2019-04-21T13:06:37.346Z,21.40
2019-04-21T13:09:10.785Z,21.36
2019-04-21T13:11:37.358Z,21.24
2019-04-21T13:14:06.243Z,21.95
2019-04-21T13:16:34.626Z,23.43
2019-04-21T13:19:03.099Z,22.18
2019-04-21T13:21:31.993Z,20.73
2019-04-21T13:24:01.053Z,21.60
2019-04-21T13:26:39.441Z,20.72
2019-04-21T13:29:00.494Z,21.28
2019-04-21T13:31:29.994Z,21.56
2019-04-21T13:33:59.859Z,24.59
2019-04-21T13:36:29.534Z,22.32
2019-04-21T13:39:44.581Z,22.57
2019-04-21T13:42:00.539Z,21.86
2019-04-21T13:44:19.569Z,23.02
2019-04-21T13:46:49.245Z,20.74
2019-04-21T13:49:19.201Z,21.17
2019-04-21T13:51:48.078Z,20.99
2019-04-21T13:54:17.864Z,21.65
2019-04-21T13:56:46.939Z,22.57
2019-04-21T13:59:16.086Z,22.02
2019-04-21T14:01:45.700Z,21.31
2019-04-21T14:04:15.859Z,21.66
2019-04-21T14:06:44.750Z,22.32
2019-04-21T14:09:13.818Z,22.22
2019-04-21T14:11:43.487Z,20.77
2019-04-21T14:14:12.423Z,21.32
2019-04-21T14:16:42.302Z,22.37
2019-04-21T14:19:11.077Z,21.91
2019-04-21T14:21:39.501Z,22.34
2019-04-21T14:24:08.856Z,22.07
2019-04-21T14:26:38.548Z,23.63
2019-04-21T14:29:07.754Z,22.94
2019-04-21T14:31:38.119Z,22.79
2019-04-21T14:34:07.940Z,21.84
2019-04-21T14:36:37.123Z,22.20
2019-04-21T14:39:08.589Z,23.07
2019-04-21T14:41:38.045Z,22.84
2019-04-21T14:44:06.979Z,21.81
2019-04-21T14:46:39.671Z,22.97
2019-04-21T14:49:13.069Z,23.01
2019-04-21T14:54:38.548Z,23.27
2019-04-21T14:57:07.341Z,23.34
2019-04-21T14:59:37.094Z,23.32
2019-04-21T15:02:07.727Z,23.66
2019-04-21T15:04:37.593Z,22.52
2019-04-21T15:07:07.552Z,23.04
2019-04-21T15:09:38.937Z,24.65
2019-04-21T15:12:10.099Z,23.35
2019-04-21T15:14:40.157Z,24.51
2019-04-21T15:17:10.464Z,24.65
2019-04-21T15:19:42.905Z,24.49
2019-04-21T15:22:10.263Z,23.67
2019-04-21T15:24:40.316Z,22.59
2019-04-21T15:27:09.248Z,22.98
2019-04-21T15:29:38.496Z,23.90
2019-04-21T15:32:08.397Z,23.57
2019-04-21T15:34:38.122Z,23.36
2019-04-21T15:37:08.060Z,23.52
2019-04-21T15:39:36.797Z,23.89
2019-04-21T15:42:06.216Z,23.26
2019-04-21T15:44:34.732Z,23.36
2019-04-21T15:47:04.030Z,23.58
2019-04-21T15:49:58.831Z,24.52
2019-04-21T15:52:22.263Z,24.05
2019-04-21T15:54:52.495Z,24.57
2019-04-21T15:57:33.491Z,25.22
2019-04-21T16:00:04.646Z,24.49
2019-04-21T16:02:36.882Z,23.85
2019-04-21T16:05:08.833Z,23.99
2019-04-21T16:07:40.671Z,23.17
2019-04-21T16:10:26.542Z,23.32
2019-04-21T16:12:40.645Z,22.75
2019-04-21T16:15:12.390Z,22.70
2019-04-21T16:17:41.442Z,23.30
2019-04-21T16:20:12.242Z,23.03
2019-04-21T16:22:42.222Z,23.22
2019-04-21T16:25:12.804Z,23.53
2019-04-21T16:27:41.519Z,23.42
2019-04-21T16:30:12.052Z,23.58
2019-04-21T16:32:41.940Z,23.56
2019-04-21T16:35:14.052Z,23.72
2019-04-21T16:37:41.570Z,23.83
2019-04-21T16:40:11.743Z,23.51
2019-04-21T16:42:40.687Z,23.37
2019-04-21T16:45:12.684Z,23.91
2019-04-21T16:47:41.978Z,24.45
2019-04-21T16:50:15.956Z,24.11
2019-04-21T16:52:49.989Z,23.69
2019-04-21T16:55:35.326Z,24.02
2019-04-21T16:58:13.131Z,25.43
2019-04-21T17:00:43.176Z,24.80
2019-04-21T17:03:08.350Z,25.66
2019-04-21T17:05:36.730Z,26.04
2019-04-21T17:08:06.402Z,25.68
2019-04-21T17:10:35.020Z,24.15
2019-04-21T17:13:03.838Z,25.17
2019-04-21T17:15:51.873Z,25.31
2019-04-21T17:18:20.770Z,25.76
2019-04-21T17:20:42.042Z,25.95
2019-04-21T17:23:04.003Z,25.61
2019-04-21T17:25:32.390Z,26.52
2019-04-21T17:28:01.609Z,27.36
2019-04-21T17:30:30.639Z,26.64
2019-04-21T17:32:59.508Z,28.52
2019-04-21T17:35:29.000Z,26.65
2019-04-21T17:37:58.345Z,26.18
2019-04-21T17:40:27.517Z,26.61
2019-04-21T17:43:03.225Z,26.79
2019-04-21T17:45:27.021Z,26.22
2019-04-21T17:48:03.231Z,27.65
2019-04-21T17:50:31.585Z,28.24
2019-04-21T17:53:16.173Z,28.30
2019-04-21T17:55:52.973Z,28.95
2019-04-21T17:58:34.183Z,28.95
2019-04-21T18:03:59.043Z,29.44
2019-04-21T18:06:02.470Z,29.82
2019-04-21T18:08:36.927Z,30.11
2019-04-21T18:11:01.185Z,30.40
2019-04-21T18:13:23.092Z,30.21
2019-04-21T18:16:01.662Z,30.82
2019-04-21T18:18:28.737Z,31.04
2019-04-21T18:21:02.893Z,30.61
2019-04-21T18:23:46.974Z,31.06
2019-04-21T18:26:11.545Z,31.45
2019-04-21T18:28:36.651Z,31.30
2019-04-21T18:31:07.751Z,31.56
2019-04-21T18:33:40.396Z,31.63
2019-04-21T18:36:34.941Z,31.53
2019-04-21T18:39:28.560Z,31.69
2019-04-21T18:42:04.987Z,32.01
2019-04-21T18:44:53.445Z,32.03
2019-04-21T18:47:35.232Z,32.36
2019-04-21T18:50:21.959Z,32.42
2019-04-21T18:53:19.468Z,32.85
2019-04-21T18:55:45.133Z,33.12
2019-04-21T18:58:11.996Z,33.01
2019-04-21T19:00:42.205Z,33.10
2019-04-21T19:03:11.874Z,33.20
2019-04-21T19:05:58.260Z,33.15
2019-04-21T19:08:40.447Z,33.49
2019-04-21T19:11:14.854Z,33.47
2019-04-21T19:13:53.113Z,33.70
2019-04-21T19:16:31.638Z,33.68
2019-04-21T19:18:50.611Z,33.96
2019-04-21T19:21:10.178Z,33.98
2019-04-21T19:24:05.993Z,34.10
2019-04-21T19:28:56.075Z,34.35
2019-04-21T19:31:24.801Z,34.61
2019-04-21T19:33:40.411Z,34.53
2019-04-21T19:35:59.322Z,34.73
2019-04-21T19:38:35.015Z,34.49
2019-04-21T19:41:18.863Z,34.64
2019-04-21T19:43:49.262Z,34.86
2019-04-21T19:46:14.380Z,34.98
2019-04-21T19:48:55.226Z,35.06
2019-04-21T19:51:17.202Z,35.23
2019-04-21T19:53:42.603Z,35.05
2019-04-21T19:56:00.393Z,35.15
2019-04-21T19:58:33.786Z,35.04
2019-04-21T20:00:59.759Z,35.17
2019-04-21T20:03:28.560Z,35.57
2019-04-21T20:06:10.300Z,35.57
2019-04-21T20:08:43.411Z,35.73
2019-04-21T20:11:17.808Z,35.61
2019-04-21T20:14:13.819Z,35.64
2019-04-21T20:16:19.215Z,35.58
2019-04-21T20:18:37.886Z,35.87
2019-04-21T20:20:59.538Z,35.74
2019-04-21T20:23:32.786Z,35.93
2019-04-21T20:26:02.289Z,36.12
2019-04-21T20:28:44.278Z,36.28
2019-04-21T20:31:19.195Z,36.60
2019-04-21T20:33:53.870Z,36.63
2019-04-21T20:36:23.901Z,36.93
2019-04-21T20:38:40.370Z,36.97
2019-04-21T20:41:15.862Z,37.15
2019-04-21T20:43:45.817Z,37.31
2019-04-21T20:46:11.999Z,37.57
2019-04-21T20:48:45.202Z,37.54
2019-04-21T20:51:18.013Z,37.51
2019-04-21T20:53:46.468Z,37.71
2019-04-21T20:56:11.112Z,37.87
2019-04-21T20:58:46.267Z,38.13
2019-04-21T21:03:47.927Z,38.33
2019-04-21T21:06:19.058Z,38.71
2019-04-21T21:08:49.898Z,38.77
2019-04-21T21:11:15.152Z,38.63
2019-04-21T21:13:52.159Z,38.78
2019-04-21T21:16:29.754Z,38.90
2019-04-21T21:19:08.508Z,38.99
2019-04-21T21:21:20.626Z,39.02
2019-04-21T21:23:52.702Z,38.99
2019-04-21T21:26:25.352Z,38.77
2019-04-21T21:28:45.605Z,38.50
2019-04-21T21:31:17.686Z,38.31
2019-04-21T21:33:58.952Z,38.36
2019-04-21T21:36:19.581Z,38.10
2019-04-21T21:38:54.583Z,38.00
2019-04-21T21:41:13.833Z,38.03
2019-04-21T21:43:37.872Z,37.74
2019-04-21T21:46:22.819Z,37.42
2019-04-21T21:48:47.049Z,37.68
2019-04-21T21:51:15.472Z,37.00
2019-04-21T21:53:38.766Z,37.05
2019-04-21T21:56:07.010Z,36.71
2019-04-21T21:58:40.332Z,36.90
2019-04-21T22:01:08.740Z,36.88
2019-04-21T22:03:41.304Z,37.12
2019-04-21T22:06:13.174Z,37.74
2019-04-21T22:08:38.567Z,37.20
2019-04-21T22:11:08.857Z,37.24
2019-04-21T22:13:46.931Z,37.32
2019-04-21T22:16:12.443Z,37.42
2019-04-21T22:19:03.521Z,37.27
2019-04-21T22:21:18.775Z,37.19
2019-04-21T22:23:47.908Z,36.92
2019-04-21T22:26:09.278Z,37.32
2019-04-21T22:28:37.917Z,36.97
2019-04-21T22:31:16.403Z,36.81
2019-04-21T22:33:44.935Z,36.51
2019-04-21T22:36:20.997Z,36.45
2019-04-21T22:38:47.647Z,36.11
2019-04-21T22:41:21.665Z,36.16
2019-04-21T22:43:43.109Z,36.40
2019-04-21T22:46:10.641Z,36.06
2019-04-21T22:48:38.752Z,35.77
2019-04-21T22:51:18.765Z,36.17
2019-04-21T22:53:44.833Z,36.25
2019-04-21T22:56:14.841Z,35.30
2019-04-21T22:58:42.262Z,35.53
2019-04-21T23:01:09.640Z,35.81
2019-04-21T23:03:42.574Z,35.38
2019-04-21T23:06:16.233Z,35.86
2019-04-21T23:08:43.489Z,35.69
2019-04-21T23:11:12.381Z,35.41
2019-04-21T23:13:40.272Z,35.73
2019-04-21T23:16:09.857Z,35.74
2019-04-21T23:18:52.432Z,35.92
2019-04-21T23:21:19.508Z,36.08
2019-04-21T23:24:01.703Z,36.06
2019-04-21T23:26:26.732Z,36.10
2019-04-21T23:29:01.977Z,36.09
2019-04-21T23:31:29.090Z,36.34
2019-04-21T23:33:42.028Z,36.51
2019-04-21T23:36:16.879Z,36.16
2019-04-21T23:38:44.969Z,36.40
2019-04-21T23:41:13.034Z,36.40
2019-04-21T23:43:44.842Z,36.51
2019-04-21T23:46:22.179Z,36.78
2019-04-21T23:49:01.828Z,36.54
2019-04-21T23:51:25.514Z,36.65
2019-04-21T23:53:43.689Z,36.57
2019-04-21T23:56:14.678Z,37.15
2019-04-21T23:58:45.824Z,36.99
